sensor_id;sensor_type;location;lat;lon;timestamp;temperature;humidity
5278;DHT22;2662;51.194;6.614;2023-02-28T00:00:48;1.10;99.90
5278;DHT22;2662;51.194;6.614;2023-02-28T00:03:15;1.10;99.90
5278;DHT22;2662;51.194;6.614;2023-02-28T00:05:42;1.10;99.90
5278;DHT22;2662;51.194;6.614;2023-02-28T00:08:10;1.00;99.90
5278;DHT22;2662;51.194;6.614;2023-02-28T00:10:38;1.00;99.90
5278;DHT22;2662;51.194;6.614;2023-02-28T00:13:06;1.00;99.90
5278;DHT22;2662;51.194;6.614;2023-02-28T00:15:33;1.10;99.90
5278;DHT22;2662;51.194;6.614;2023-02-28T00:18:00;1.00;99.90
5278;DHT22;2662;51.194;6.614;2023-02-28T00:20:27;1.00;99.90
5278;DHT22;2662;51.194;6.614;2023-02-28T00:22:55;0.90;99.90
5278;DHT22;2662;51.194;6.614;2023-02-28T00:25:25;0.90;99.90
5278;DHT22;2662;51.194;6.614;2023-02-28T00:27:52;0.90;99.90
5278;DHT22;2662;51.194;6.614;2023-02-28T00:30:20;0.80;99.90
5278;DHT22;2662;51.194;6.614;2023-02-28T00:32:48;0.80;99.90
5278;DHT22;2662;51.194;6.614;2023-02-28T00:35:15;0.80;99.90
5278;DHT22;2662;51.194;6.614;2023-02-28T00:37:42;0.90;99.90
5278;DHT22;2662;51.194;6.614;2023-02-28T00:40:10;0.90;99.90
5278;DHT22;2662;51.194;6.614;2023-02-28T00:42:39;0.80;99.90
5278;DHT22;2662;51.194;6.614;2023-02-28T00:45:07;0.70;99.90
5278;DHT22;2662;51.194;6.614;2023-02-28T00:47:34;0.70;99.90
5278;DHT22;2662;51.194;6.614;2023-02-28T00:50:01;0.70;99.90
5278;DHT22;2662;51.194;6.614;2023-02-28T00:52:29;0.70;99.90
5278;DHT22;2662;51.194;6.614;2023-02-28T00:54:55;0.70;99.90
5278;DHT22;2662;51.194;6.614;2023-02-28T00:57:22;0.70;99.90
5278;DHT22;2662;51.194;6.614;2023-02-28T00:59:50;0.80;99.90
5278;DHT22;2662;51.194;6.614;2023-02-28T01:02:19;0.80;99.90
5278;DHT22;2662;51.194;6.614;2023-02-28T01:04:47;0.80;99.90
5278;DHT22;2662;51.194;6.614;2023-02-28T01:07:13;0.90;99.90
5278;DHT22;2662;51.194;6.614;2023-02-28T01:09:40;0.90;99.90
5278;DHT22;2662;51.194;6.614;2023-02-28T01:12:07;1.00;99.90
5278;DHT22;2662;51.194;6.614;2023-02-28T01:14:34;1.00;99.90
5278;DHT22;2662;51.194;6.614;2023-02-28T01:17:04;1.00;99.90
5278;DHT22;2662;51.194;6.614;2023-02-28T01:19:30;1.10;99.90
5278;DHT22;2662;51.194;6.614;2023-02-28T01:22:00;1.00;99.90
5278;DHT22;2662;51.194;6.614;2023-02-28T01:24:27;1.00;99.90
5278;DHT22;2662;51.194;6.614;2023-02-28T01:26:53;1.00;99.90
5278;DHT22;2662;51.194;6.614;2023-02-28T01:29:20;1.00;99.90
5278;DHT22;2662;51.194;6.614;2023-02-28T01:31:47;1.00;99.90
5278;DHT22;2662;51.194;6.614;2023-02-28T01:34:15;0.90;99.90
5278;DHT22;2662;51.194;6.614;2023-02-28T01:36:44;0.90;99.90
5278;DHT22;2662;51.194;6.614;2023-02-28T01:39:11;0.80;99.90
5278;DHT22;2662;51.194;6.614;2023-02-28T01:41:38;0.80;99.90
5278;DHT22;2662;51.194;6.614;2023-02-28T01:46:49;0.60;99.90
5278;DHT22;2662;51.194;6.614;2023-02-28T01:49:18;0.60;99.90
5278;DHT22;2662;51.194;6.614;2023-02-28T01:51:46;0.50;99.90
5278;DHT22;2662;51.194;6.614;2023-02-28T01:54:18;0.60;99.90
5278;DHT22;2662;51.194;6.614;2023-02-28T01:56:51;0.50;99.90
5278;DHT22;2662;51.194;6.614;2023-02-28T01:59:23;0.60;99.90
5278;DHT22;2662;51.194;6.614;2023-02-28T02:01:50;0.50;99.90
5278;DHT22;2662;51.194;6.614;2023-02-28T02:04:18;0.50;99.90
5278;DHT22;2662;51.194;6.614;2023-02-28T02:06:48;0.60;99.90
5278;DHT22;2662;51.194;6.614;2023-02-28T02:09:16;0.50;99.90
5278;DHT22;2662;51.194;6.614;2023-02-28T02:11:43;0.40;99.90
5278;DHT22;2662;51.194;6.614;2023-02-28T02:14:32;0.30;99.90
5278;DHT22;2662;51.194;6.614;2023-02-28T02:17:10;0.20;99.90
5278;DHT22;2662;51.194;6.614;2023-02-28T02:25:52;0.20;99.90
5278;DHT22;2662;51.194;6.614;2023-02-28T02:28:41;0.10;99.90
5278;DHT22;2662;51.194;6.614;2023-02-28T02:31:28;0.10;99.90
5278;DHT22;2662;51.194;6.614;2023-02-28T02:34:26;0.10;99.90
5278;DHT22;2662;51.194;6.614;2023-02-28T02:36:58;0.00;99.90
5278;DHT22;2662;51.194;6.614;2023-02-28T02:39:33;-0.10;99.90
5278;DHT22;2662;51.194;6.614;2023-02-28T02:42:03;-0.10;99.90
5278;DHT22;2662;51.194;6.614;2023-02-28T02:44:36;0.00;99.90
5278;DHT22;2662;51.194;6.614;2023-02-28T02:47:09;0.00;99.90
5278;DHT22;2662;51.194;6.614;2023-02-28T02:49:42;0.00;99.90
5278;DHT22;2662;51.194;6.614;2023-02-28T02:52:12;0.00;99.90
5278;DHT22;2662;51.194;6.614;2023-02-28T02:54:42;0.00;99.90
5278;DHT22;2662;51.194;6.614;2023-02-28T02:57:13;0.00;99.90
5278;DHT22;2662;51.194;6.614;2023-02-28T02:59:43;0.00;99.90
5278;DHT22;2662;51.194;6.614;2023-02-28T03:02:12;0.00;99.90
5278;DHT22;2662;51.194;6.614;2023-02-28T03:04:45;0.00;99.90
5278;DHT22;2662;51.194;6.614;2023-02-28T03:07:12;0.00;99.90
5278;DHT22;2662;51.194;6.614;2023-02-28T03:09:39;0.00;99.90
5278;DHT22;2662;51.194;6.614;2023-02-28T03:12:10;0.00;99.90
5278;DHT22;2662;51.194;6.614;2023-02-28T03:14:47;-0.10;99.90
5278;DHT22;2662;51.194;6.614;2023-02-28T03:17:40;-0.10;99.90
5278;DHT22;2662;51.194;6.614;2023-02-28T03:20:18;0.00;99.90
5278;DHT22;2662;51.194;6.614;2023-02-28T03:22:59;-0.10;99.90
5278;DHT22;2662;51.194;6.614;2023-02-28T03:25:33;-0.10;99.90
5278;DHT22;2662;51.194;6.614;2023-02-28T03:28:08;-0.10;99.90
5278;DHT22;2662;51.194;6.614;2023-02-28T03:30:41;-0.20;99.90
5278;DHT22;2662;51.194;6.614;2023-02-28T03:33:11;-0.30;99.90
5278;DHT22;2662;51.194;6.614;2023-02-28T03:35:42;-0.30;99.90
5278;DHT22;2662;51.194;6.614;2023-02-28T03:38:14;-0.30;99.90
5278;DHT22;2662;51.194;6.614;2023-02-28T03:40:48;-0.40;99.90
5278;DHT22;2662;51.194;6.614;2023-02-28T03:43:19;-0.40;99.90
5278;DHT22;2662;51.194;6.614;2023-02-28T03:45:50;-0.30;99.90
5278;DHT22;2662;51.194;6.614;2023-02-28T03:48:20;-0.40;99.90
5278;DHT22;2662;51.194;6.614;2023-02-28T03:50:52;-0.30;99.90
5278;DHT22;2662;51.194;6.614;2023-02-28T03:53:25;-0.30;99.90
5278;DHT22;2662;51.194;6.614;2023-02-28T03:55:56;-0.40;99.90
5278;DHT22;2662;51.194;6.614;2023-02-28T03:58:28;-0.40;99.90
5278;DHT22;2662;51.194;6.614;2023-02-28T04:01:00;-0.50;99.90
5278;DHT22;2662;51.194;6.614;2023-02-28T04:03:34;-0.50;99.90
5278;DHT22;2662;51.194;6.614;2023-02-28T04:06:03;-0.40;99.90
5278;DHT22;2662;51.194;6.614;2023-02-28T04:08:30;-0.50;99.90
5278;DHT22;2662;51.194;6.614;2023-02-28T04:11:03;-0.50;99.90
5278;DHT22;2662;51.194;6.614;2023-02-28T04:13:31;-0.60;99.90
5278;DHT22;2662;51.194;6.614;2023-02-28T04:15:58;-0.60;99.90
5278;DHT22;2662;51.194;6.614;2023-02-28T04:18:24;-0.60;99.90
5278;DHT22;2662;51.194;6.614;2023-02-28T04:20:51;-0.60;99.90
5278;DHT22;2662;51.194;6.614;2023-02-28T04:23:19;-0.60;99.90
5278;DHT22;2662;51.194;6.614;2023-02-28T04:25:46;-0.70;99.90
5278;DHT22;2662;51.194;6.614;2023-02-28T04:28:12;-0.70;99.90
5278;DHT22;2662;51.194;6.614;2023-02-28T04:30:39;-0.70;99.90
5278;DHT22;2662;51.194;6.614;2023-02-28T04:33:06;-0.60;99.90
5278;DHT22;2662;51.194;6.614;2023-02-28T04:35:32;-0.70;99.90
5278;DHT22;2662;51.194;6.614;2023-02-28T04:37:59;-0.60;99.90
5278;DHT22;2662;51.194;6.614;2023-02-28T04:40:27;-0.70;99.90
5278;DHT22;2662;51.194;6.614;2023-02-28T04:42:54;-0.70;99.90
5278;DHT22;2662;51.194;6.614;2023-02-28T04:45:21;-0.70;99.90
5278;DHT22;2662;51.194;6.614;2023-02-28T04:47:47;-0.70;99.90
5278;DHT22;2662;51.194;6.614;2023-02-28T04:50:14;-0.80;99.90
5278;DHT22;2662;51.194;6.614;2023-02-28T04:52:41;-0.80;99.90
5278;DHT22;2662;51.194;6.614;2023-02-28T04:55:08;-0.80;99.90
5278;DHT22;2662;51.194;6.614;2023-02-28T04:57:37;-0.80;99.90
5278;DHT22;2662;51.194;6.614;2023-02-28T05:00:04;-0.70;99.90
5278;DHT22;2662;51.194;6.614;2023-02-28T05:02:37;-0.70;99.90
5278;DHT22;2662;51.194;6.614;2023-02-28T05:05:04;-0.70;99.90
5278;DHT22;2662;51.194;6.614;2023-02-28T05:07:30;-0.70;99.90
5278;DHT22;2662;51.194;6.614;2023-02-28T05:09:57;-0.80;99.90
5278;DHT22;2662;51.194;6.614;2023-02-28T05:12:24;-0.80;99.90
5278;DHT22;2662;51.194;6.614;2023-02-28T05:14:52;-0.90;99.90
5278;DHT22;2662;51.194;6.614;2023-02-28T05:17:19;-0.90;99.90
5278;DHT22;2662;51.194;6.614;2023-02-28T05:19:45;-0.90;99.90
5278;DHT22;2662;51.194;6.614;2023-02-28T05:22:13;-0.90;99.90
5278;DHT22;2662;51.194;6.614;2023-02-28T05:24:41;-0.90;99.90
5278;DHT22;2662;51.194;6.614;2023-02-28T05:27:09;-0.80;99.90
5278;DHT22;2662;51.194;6.614;2023-02-28T05:29:36;-0.80;99.90
5278;DHT22;2662;51.194;6.614;2023-02-28T05:32:09;-0.80;99.90
5278;DHT22;2662;51.194;6.614;2023-02-28T05:34:36;-0.80;99.90
5278;DHT22;2662;51.194;6.614;2023-02-28T05:37:03;-0.80;99.90
5278;DHT22;2662;51.194;6.614;2023-02-28T05:39:30;-0.80;99.90
5278;DHT22;2662;51.194;6.614;2023-02-28T05:41:56;-0.70;99.90
5278;DHT22;2662;51.194;6.614;2023-02-28T05:44:23;-0.80;99.90
5278;DHT22;2662;51.194;6.614;2023-02-28T05:46:50;-0.80;99.90
5278;DHT22;2662;51.194;6.614;2023-02-28T05:49:18;-0.80;99.90
5278;DHT22;2662;51.194;6.614;2023-02-28T05:51:45;-0.80;99.90
5278;DHT22;2662;51.194;6.614;2023-02-28T05:54:12;-0.80;99.90
5278;DHT22;2662;51.194;6.614;2023-02-28T05:56:39;-0.80;99.90
5278;DHT22;2662;51.194;6.614;2023-02-28T05:59:09;-0.90;99.90
5278;DHT22;2662;51.194;6.614;2023-02-28T06:01:37;-0.90;99.90
5278;DHT22;2662;51.194;6.614;2023-02-28T06:04:06;-0.90;99.90
5278;DHT22;2662;51.194;6.614;2023-02-28T06:06:35;-0.90;99.90
5278;DHT22;2662;51.194;6.614;2023-02-28T06:09:02;-0.90;99.90
5278;DHT22;2662;51.194;6.614;2023-02-28T06:11:30;-1.00;99.90
5278;DHT22;2662;51.194;6.614;2023-02-28T06:13:57;-1.00;99.90
5278;DHT22;2662;51.194;6.614;2023-02-28T06:16:25;-1.00;99.90
5278;DHT22;2662;51.194;6.614;2023-02-28T06:18:52;-1.00;99.90
5278;DHT22;2662;51.194;6.614;2023-02-28T06:21:21;-1.10;99.90
5278;DHT22;2662;51.194;6.614;2023-02-28T06:23:49;-1.10;99.90
5278;DHT22;2662;51.194;6.614;2023-02-28T06:26:16;-1.10;99.90
5278;DHT22;2662;51.194;6.614;2023-02-28T06:28:42;-1.10;99.90
5278;DHT22;2662;51.194;6.614;2023-02-28T06:31:10;-1.10;99.90
5278;DHT22;2662;51.194;6.614;2023-02-28T06:33:38;-1.10;99.90
5278;DHT22;2662;51.194;6.614;2023-02-28T06:36:06;-1.10;99.90
5278;DHT22;2662;51.194;6.614;2023-02-28T06:38:33;-1.10;99.90
5278;DHT22;2662;51.194;6.614;2023-02-28T06:41:02;-1.10;99.90
5278;DHT22;2662;51.194;6.614;2023-02-28T06:43:31;-1.00;99.90
5278;DHT22;2662;51.194;6.614;2023-02-28T06:46:00;-1.10;99.90
5278;DHT22;2662;51.194;6.614;2023-02-28T06:48:27;-1.10;99.90
5278;DHT22;2662;51.194;6.614;2023-02-28T06:51:02;-1.00;99.90
5278;DHT22;2662;51.194;6.614;2023-02-28T06:53:28;-0.80;99.90
5278;DHT22;2662;51.194;6.614;2023-02-28T06:55:55;-0.80;99.90
5278;DHT22;2662;51.194;6.614;2023-02-28T06:58:23;-0.70;99.90
5278;DHT22;2662;51.194;6.614;2023-02-28T07:00:51;-0.70;99.90
5278;DHT22;2662;51.194;6.614;2023-02-28T07:03:19;-0.60;99.90
5278;DHT22;2662;51.194;6.614;2023-02-28T07:05:45;-0.30;99.90
5278;DHT22;2662;51.194;6.614;2023-02-28T07:08:12;0.00;99.90
5278;DHT22;2662;51.194;6.614;2023-02-28T07:10:39;0.60;99.90
5278;DHT22;2662;51.194;6.614;2023-02-28T07:13:07;1.10;99.90
5278;DHT22;2662;51.194;6.614;2023-02-28T07:15:36;1.40;99.90
5278;DHT22;2662;51.194;6.614;2023-02-28T07:18:03;1.40;99.90
5278;DHT22;2662;51.194;6.614;2023-02-28T07:20:30;1.50;99.90
5278;DHT22;2662;51.194;6.614;2023-02-28T07:22:57;1.60;99.90
5278;DHT22;2662;51.194;6.614;2023-02-28T07:25:24;1.90;99.90
5278;DHT22;2662;51.194;6.614;2023-02-28T07:27:51;2.50;99.90
5278;DHT22;2662;51.194;6.614;2023-02-28T07:30:18;2.70;99.90
5278;DHT22;2662;51.194;6.614;2023-02-28T07:32:46;2.80;99.90
5278;DHT22;2662;51.194;6.614;2023-02-28T07:35:13;3.30;99.90
5278;DHT22;2662;51.194;6.614;2023-02-28T07:37:40;4.40;99.90
5278;DHT22;2662;51.194;6.614;2023-02-28T07:40:09;4.80;99.90
5278;DHT22;2662;51.194;6.614;2023-02-28T07:42:38;4.40;99.90
5278;DHT22;2662;51.194;6.614;2023-02-28T07:45:06;4.90;99.90
5278;DHT22;2662;51.194;6.614;2023-02-28T07:47:33;6.10;99.90
5278;DHT22;2662;51.194;6.614;2023-02-28T07:50:01;6.20;99.90
5278;DHT22;2662;51.194;6.614;2023-02-28T07:52:28;5.60;99.90
5278;DHT22;2662;51.194;6.614;2023-02-28T07:54:54;5.90;99.90
5278;DHT22;2662;51.194;6.614;2023-02-28T07:57:22;6.20;99.90
5278;DHT22;2662;51.194;6.614;2023-02-28T07:59:48;6.60;99.90
5278;DHT22;2662;51.194;6.614;2023-02-28T08:02:17;7.10;99.90
5278;DHT22;2662;51.194;6.614;2023-02-28T08:04:44;8.00;99.00
5278;DHT22;2662;51.194;6.614;2023-02-28T08:07:14;7.50;97.90
5278;DHT22;2662;51.194;6.614;2023-02-28T08:09:41;7.90;98.10
5278;DHT22;2662;51.194;6.614;2023-02-28T08:12:09;8.60;96.70
5278;DHT22;2662;51.194;6.614;2023-02-28T08:14:36;9.20;95.00
5278;DHT22;2662;51.194;6.614;2023-02-28T08:17:03;9.00;93.40
5278;DHT22;2662;51.194;6.614;2023-02-28T08:19:31;8.10;93.20
5278;DHT22;2662;51.194;6.614;2023-02-28T08:21:57;8.50;92.80
5278;DHT22;2662;51.194;6.614;2023-02-28T08:24:26;8.50;91.20
5278;DHT22;2662;51.194;6.614;2023-02-28T08:26:52;8.60;89.60
5278;DHT22;2662;51.194;6.614;2023-02-28T08:29:19;8.10;88.70
5278;DHT22;2662;51.194;6.614;2023-02-28T08:31:46;8.70;88.50
5278;DHT22;2662;51.194;6.614;2023-02-28T08:34:14;8.90;84.10
5278;DHT22;2662;51.194;6.614;2023-02-28T08:36:41;9.10;84.90
5278;DHT22;2662;51.194;6.614;2023-02-28T08:39:10;8.90;84.40
5278;DHT22;2662;51.194;6.614;2023-02-28T08:41:38;9.10;82.90
5278;DHT22;2662;51.194;6.614;2023-02-28T08:44:05;9.50;83.30
5278;DHT22;2662;51.194;6.614;2023-02-28T08:46:32;9.70;81.80
5278;DHT22;2662;51.194;6.614;2023-02-28T08:48:59;9.40;78.90
5278;DHT22;2662;51.194;6.614;2023-02-28T08:51:27;9.80;78.50
5278;DHT22;2662;51.194;6.614;2023-02-28T08:53:56;10.00;74.50
5278;DHT22;2662;51.194;6.614;2023-02-28T08:56:25;9.60;74.00
5278;DHT22;2662;51.194;6.614;2023-02-28T08:58:55;9.40;72.90
5278;DHT22;2662;51.194;6.614;2023-02-28T09:01:24;9.40;74.50
5278;DHT22;2662;51.194;6.614;2023-02-28T09:03:52;9.70;73.80
5278;DHT22;2662;51.194;6.614;2023-02-28T09:06:22;10.00;71.90
5278;DHT22;2662;51.194;6.614;2023-02-28T09:08:49;9.80;71.20
5278;DHT22;2662;51.194;6.614;2023-02-28T09:11:16;10.00;70.50
5278;DHT22;2662;51.194;6.614;2023-02-28T09:13:44;9.30;71.00
5278;DHT22;2662;51.194;6.614;2023-02-28T09:16:14;9.80;72.00
5278;DHT22;2662;51.194;6.614;2023-02-28T09:18:41;9.70;69.80
5278;DHT22;2662;51.194;6.614;2023-02-28T09:21:09;9.70;68.70
5278;DHT22;2662;51.194;6.614;2023-02-28T09:23:39;10.10;67.60
5278;DHT22;2662;51.194;6.614;2023-02-28T09:26:06;9.90;68.80
5278;DHT22;2662;51.194;6.614;2023-02-28T09:28:33;9.60;69.30
5278;DHT22;2662;51.194;6.614;2023-02-28T09:31:00;10.30;68.60
5278;DHT22;2662;51.194;6.614;2023-02-28T09:33:28;10.50;67.90
5278;DHT22;2662;51.194;6.614;2023-02-28T09:35:59;10.30;65.80
5278;DHT22;2662;51.194;6.614;2023-02-28T09:38:26;9.80;67.50
5278;DHT22;2662;51.194;6.614;2023-02-28T09:40:55;9.90;68.00
5278;DHT22;2662;51.194;6.614;2023-02-28T09:43:25;9.70;67.10
5278;DHT22;2662;51.194;6.614;2023-02-28T09:45:55;9.40;66.70
5278;DHT22;2662;51.194;6.614;2023-02-28T09:48:26;9.40;66.30
5278;DHT22;2662;51.194;6.614;2023-02-28T09:51:00;8.90;66.70
5278;DHT22;2662;51.194;6.614;2023-02-28T09:53:30;8.80;67.40
5278;DHT22;2662;51.194;6.614;2023-02-28T09:56:03;9.00;68.10
5278;DHT22;2662;51.194;6.614;2023-02-28T09:58:37;9.40;69.40
5278;DHT22;2662;51.194;6.614;2023-02-28T10:01:12;9.20;68.80
5278;DHT22;2662;51.194;6.614;2023-02-28T10:03:47;8.30;69.40
5278;DHT22;2662;51.194;6.614;2023-02-28T10:06:20;9.00;68.90
5278;DHT22;2662;51.194;6.614;2023-02-28T10:08:55;8.90;69.10
5278;DHT22;2662;51.194;6.614;2023-02-28T10:11:23;8.80;67.90
5278;DHT22;2662;51.194;6.614;2023-02-28T10:13:53;8.40;67.50
5278;DHT22;2662;51.194;6.614;2023-02-28T10:16:27;7.20;68.90
5278;DHT22;2662;51.194;6.614;2023-02-28T10:18:59;6.40;70.20
5278;DHT22;2662;51.194;6.614;2023-02-28T10:21:31;6.30;72.40
5278;DHT22;2662;51.194;6.614;2023-02-28T10:24:05;7.10;73.50
5278;DHT22;2662;51.194;6.614;2023-02-28T10:26:37;7.90;71.40
5278;DHT22;2662;51.194;6.614;2023-02-28T10:29:04;8.50;74.30
5278;DHT22;2662;51.194;6.614;2023-02-28T10:31:31;9.20;75.80
5278;DHT22;2662;51.194;6.614;2023-02-28T10:33:58;9.70;72.90
5278;DHT22;2662;51.194;6.614;2023-02-28T10:36:25;10.50;74.90
5278;DHT22;2662;51.194;6.614;2023-02-28T10:38:53;9.60;68.90
5278;DHT22;2662;51.194;6.614;2023-02-28T10:41:28;9.40;69.80
5278;DHT22;2662;51.194;6.614;2023-02-28T10:44:15;8.90;70.00
5278;DHT22;2662;51.194;6.614;2023-02-28T10:46:44;8.80;72.80
5278;DHT22;2662;51.194;6.614;2023-02-28T10:49:14;9.60;73.90
5278;DHT22;2662;51.194;6.614;2023-02-28T10:51:41;10.10;73.40
5278;DHT22;2662;51.194;6.614;2023-02-28T10:54:18;9.40;71.30
5278;DHT22;2662;51.194;6.614;2023-02-28T10:56:45;8.40;70.90
5278;DHT22;2662;51.194;6.614;2023-02-28T10:59:28;8.20;75.00
5278;DHT22;2662;51.194;6.614;2023-02-28T11:01:55;8.00;77.80
5278;DHT22;2662;51.194;6.614;2023-02-28T11:04:33;7.70;73.00
5278;DHT22;2662;51.194;6.614;2023-02-28T11:07:04;7.60;74.70
5278;DHT22;2662;51.194;6.614;2023-02-28T11:09:34;7.50;77.50
5278;DHT22;2662;51.194;6.614;2023-02-28T11:12:02;7.80;76.80
5278;DHT22;2662;51.194;6.614;2023-02-28T11:14:35;7.90;75.10
5278;DHT22;2662;51.194;6.614;2023-02-28T11:17:13;7.80;78.50
5278;DHT22;2662;51.194;6.614;2023-02-28T11:19:47;8.10;81.40
5278;DHT22;2662;51.194;6.614;2023-02-28T11:22:19;8.10;75.60
5278;DHT22;2662;51.194;6.614;2023-02-28T11:24:50;7.80;77.30
5278;DHT22;2662;51.194;6.614;2023-02-28T11:27:26;7.90;77.50
5278;DHT22;2662;51.194;6.614;2023-02-28T11:29:53;7.40;76.60
5278;DHT22;2662;51.194;6.614;2023-02-28T11:32:20;7.20;77.70
5278;DHT22;2662;51.194;6.614;2023-02-28T11:35:02;7.20;76.40
5278;DHT22;2662;51.194;6.614;2023-02-28T11:37:30;6.50;76.30
5278;DHT22;2662;51.194;6.614;2023-02-28T11:39:59;6.00;74.60
5278;DHT22;2662;51.194;6.614;2023-02-28T11:42:48;5.90;77.00
5278;DHT22;2662;51.194;6.614;2023-02-28T11:45:43;5.70;80.20
5278;DHT22;2662;51.194;6.614;2023-02-28T11:48:17;5.70;79.90
5278;DHT22;2662;51.194;6.614;2023-02-28T11:50:54;5.90;82.00
5278;DHT22;2662;51.194;6.614;2023-02-28T11:53:35;6.00;82.40
5278;DHT22;2662;51.194;6.614;2023-02-28T11:56:10;5.50;80.70
5278;DHT22;2662;51.194;6.614;2023-02-28T11:58:48;5.40;80.70
5278;DHT22;2662;51.194;6.614;2023-02-28T12:01:38;5.10;81.00
5278;DHT22;2662;51.194;6.614;2023-02-28T12:04:21;4.80;81.20
5278;DHT22;2662;51.194;6.614;2023-02-28T12:06:55;4.80;82.20
5278;DHT22;2662;51.194;6.614;2023-02-28T12:09:37;4.80;81.40
5278;DHT22;2662;51.194;6.614;2023-02-28T12:12:18;5.00;85.10
5278;DHT22;2662;51.194;6.614;2023-02-28T12:14:55;4.80;82.40
5278;DHT22;2662;51.194;6.614;2023-02-28T12:17:36;5.20;85.30
5278;DHT22;2662;51.194;6.614;2023-02-28T12:20:17;5.70;85.90
5278;DHT22;2662;51.194;6.614;2023-02-28T12:22:53;5.90;82.00
5278;DHT22;2662;51.194;6.614;2023-02-28T12:25:39;6.20;84.30
5278;DHT22;2662;51.194;6.614;2023-02-28T12:28:13;6.40;81.30
5278;DHT22;2662;51.194;6.614;2023-02-28T12:30:45;6.70;82.40
5278;DHT22;2662;51.194;6.614;2023-02-28T12:33:17;6.90;80.30
5278;DHT22;2662;51.194;6.614;2023-02-28T12:35:49;7.10;83.50
5278;DHT22;2662;51.194;6.614;2023-02-28T12:38:19;6.70;79.90
5278;DHT22;2662;51.194;6.614;2023-02-28T12:40:50;6.60;80.40
5278;DHT22;2662;51.194;6.614;2023-02-28T12:43:22;6.50;80.50
5278;DHT22;2662;51.194;6.614;2023-02-28T12:45:55;6.10;80.90
5278;DHT22;2662;51.194;6.614;2023-02-28T12:48:27;6.20;81.90
5278;DHT22;2662;51.194;6.614;2023-02-28T12:50:56;6.30;83.00
5278;DHT22;2662;51.194;6.614;2023-02-28T12:53:28;6.40;83.60
5278;DHT22;2662;51.194;6.614;2023-02-28T12:56:05;6.20;83.90
5278;DHT22;2662;51.194;6.614;2023-02-28T12:58:38;6.10;83.80
5278;DHT22;2662;51.194;6.614;2023-02-28T13:01:39;5.90;82.60
5278;DHT22;2662;51.194;6.614;2023-02-28T13:04:32;5.80;83.30
5278;DHT22;2662;51.194;6.614;2023-02-28T13:07:15;5.70;84.40
5278;DHT22;2662;51.194;6.614;2023-02-28T13:09:52;5.50;84.20
5278;DHT22;2662;51.194;6.614;2023-02-28T13:12:19;5.40;85.20
5278;DHT22;2662;51.194;6.614;2023-02-28T13:14:50;5.40;85.90
5278;DHT22;2662;51.194;6.614;2023-02-28T13:17:19;5.50;86.70
5278;DHT22;2662;51.194;6.614;2023-02-28T13:19:56;5.70;88.10
5278;DHT22;2662;51.194;6.614;2023-02-28T13:22:37;5.60;85.80
5278;DHT22;2662;51.194;6.614;2023-02-28T13:34:39;6.10;86.40
5278;DHT22;2662;51.194;6.614;2023-02-28T13:37:34;6.20;87.00
5278;DHT22;2662;51.194;6.614;2023-02-28T13:40:29;6.30;86.50
5278;DHT22;2662;51.194;6.614;2023-02-28T13:43:02;6.30;86.60
5278;DHT22;2662;51.194;6.614;2023-02-28T13:45:30;6.40;86.60
5278;DHT22;2662;51.194;6.614;2023-02-28T13:48:15;6.40;84.30
5278;DHT22;2662;51.194;6.614;2023-02-28T13:50:43;6.20;83.20
5278;DHT22;2662;51.194;6.614;2023-02-28T13:53:30;6.10;84.70
5278;DHT22;2662;51.194;6.614;2023-02-28T13:56:05;6.30;87.00
5278;DHT22;2662;51.194;6.614;2023-02-28T13:58:41;6.40;87.30
5278;DHT22;2662;51.194;6.614;2023-02-28T14:01:29;6.40;84.90
5278;DHT22;2662;51.194;6.614;2023-02-28T14:04:17;6.40;85.50
5278;DHT22;2662;51.194;6.614;2023-02-28T14:06:49;6.50;85.00
5278;DHT22;2662;51.194;6.614;2023-02-28T14:09:23;6.40;84.50
5278;DHT22;2662;51.194;6.614;2023-02-28T14:11:51;6.50;85.30
5278;DHT22;2662;51.194;6.614;2023-02-28T14:17:16;6.80;84.10
5278;DHT22;2662;51.194;6.614;2023-02-28T14:19:46;6.70;82.90
5278;DHT22;2662;51.194;6.614;2023-02-28T14:22:31;6.70;84.40
5278;DHT22;2662;51.194;6.614;2023-02-28T14:25:13;6.60;84.90
5278;DHT22;2662;51.194;6.614;2023-02-28T14:27:47;6.40;83.60
5278;DHT22;2662;51.194;6.614;2023-02-28T14:30:52;6.40;85.10
5278;DHT22;2662;51.194;6.614;2023-02-28T14:33:39;6.40;84.80
5278;DHT22;2662;51.194;6.614;2023-02-28T14:36:17;6.40;84.60
5278;DHT22;2662;51.194;6.614;2023-02-28T14:38:47;6.40;86.80
5278;DHT22;2662;51.194;6.614;2023-02-28T14:41:21;6.70;87.80
5278;DHT22;2662;51.194;6.614;2023-02-28T14:43:54;6.70;85.70
5278;DHT22;2662;51.194;6.614;2023-02-28T14:46:23;6.50;86.00
5278;DHT22;2662;51.194;6.614;2023-02-28T14:48:52;6.60;85.80
5278;DHT22;2662;51.194;6.614;2023-02-28T14:51:22;6.70;86.90
5278;DHT22;2662;51.194;6.614;2023-02-28T14:53:51;6.60;85.50
5278;DHT22;2662;51.194;6.614;2023-02-28T14:56:21;6.60;86.50
5278;DHT22;2662;51.194;6.614;2023-02-28T14:58:52;6.80;88.70
5278;DHT22;2662;51.194;6.614;2023-02-28T15:01:20;6.70;85.60
5278;DHT22;2662;51.194;6.614;2023-02-28T15:03:48;6.30;88.10
5278;DHT22;2662;51.194;6.614;2023-02-28T15:06:24;6.40;87.90
5278;DHT22;2662;51.194;6.614;2023-02-28T15:09:06;6.50;89.00
5278;DHT22;2662;51.194;6.614;2023-02-28T15:11:34;6.60;89.30
5278;DHT22;2662;51.194;6.614;2023-02-28T15:14:01;6.50;87.50
5278;DHT22;2662;51.194;6.614;2023-02-28T15:16:31;6.60;88.60
5278;DHT22;2662;51.194;6.614;2023-02-28T15:19:00;6.60;89.10
5278;DHT22;2662;51.194;6.614;2023-02-28T15:21:32;6.80;89.20
5278;DHT22;2662;51.194;6.614;2023-02-28T15:24:04;6.90;88.70
5278;DHT22;2662;51.194;6.614;2023-02-28T15:26:33;6.60;88.20
5278;DHT22;2662;51.194;6.614;2023-02-28T15:29:03;6.60;89.20
5278;DHT22;2662;51.194;6.614;2023-02-28T15:31:33;6.60;87.90
5278;DHT22;2662;51.194;6.614;2023-02-28T15:34:04;6.70;89.60
5278;DHT22;2662;51.194;6.614;2023-02-28T15:36:33;6.60;88.80
5278;DHT22;2662;51.194;6.614;2023-02-28T15:39:16;6.60;90.30
5278;DHT22;2662;51.194;6.614;2023-02-28T15:41:44;6.60;90.60
5278;DHT22;2662;51.194;6.614;2023-02-28T15:44:23;6.80;90.50
5278;DHT22;2662;51.194;6.614;2023-02-28T15:46:58;6.40;90.60
5278;DHT22;2662;51.194;6.614;2023-02-28T15:49:28;6.30;91.30
5278;DHT22;2662;51.194;6.614;2023-02-28T15:51:59;6.30;91.40
5278;DHT22;2662;51.194;6.614;2023-02-28T15:54:28;6.30;91.80
5278;DHT22;2662;51.194;6.614;2023-02-28T15:56:57;6.30;92.30
5278;DHT22;2662;51.194;6.614;2023-02-28T15:59:27;6.20;92.70
5278;DHT22;2662;51.194;6.614;2023-02-28T16:02:13;6.10;92.50
5278;DHT22;2662;51.194;6.614;2023-02-28T16:04:55;6.20;93.40
5278;DHT22;2662;51.194;6.614;2023-02-28T16:07:24;6.10;93.20
5278;DHT22;2662;51.194;6.614;2023-02-28T16:09:50;6.10;93.10
5278;DHT22;2662;51.194;6.614;2023-02-28T16:12:19;6.00;93.60
5278;DHT22;2662;51.194;6.614;2023-02-28T16:14:47;5.90;94.00
5278;DHT22;2662;51.194;6.614;2023-02-28T16:17:20;5.90;93.80
5278;DHT22;2662;51.194;6.614;2023-02-28T16:19:47;5.80;94.20
5278;DHT22;2662;51.194;6.614;2023-02-28T16:22:14;5.80;94.40
5278;DHT22;2662;51.194;6.614;2023-02-28T16:24:42;5.80;94.60
5278;DHT22;2662;51.194;6.614;2023-02-28T16:27:16;5.70;94.20
5278;DHT22;2662;51.194;6.614;2023-02-28T16:29:44;5.70;94.90
5278;DHT22;2662;51.194;6.614;2023-02-28T16:32:13;5.60;95.60
5278;DHT22;2662;51.194;6.614;2023-02-28T16:34:40;5.50;96.90
5278;DHT22;2662;51.194;6.614;2023-02-28T16:37:11;5.40;97.40
5278;DHT22;2662;51.194;6.614;2023-02-28T16:39:38;5.40;98.30
5278;DHT22;2662;51.194;6.614;2023-02-28T16:42:10;5.40;98.60
5278;DHT22;2662;51.194;6.614;2023-02-28T16:44:40;5.30;98.50
5278;DHT22;2662;51.194;6.614;2023-02-28T16:47:09;5.20;99.60
5278;DHT22;2662;51.194;6.614;2023-02-28T16:49:36;5.20;99.60
5278;DHT22;2662;51.194;6.614;2023-02-28T16:52:03;5.10;99.90
5278;DHT22;2662;51.194;6.614;2023-02-28T16:54:31;5.10;99.90
5278;DHT22;2662;51.194;6.614;2023-02-28T16:56:58;5.00;99.90
5278;DHT22;2662;51.194;6.614;2023-02-28T16:59:27;5.00;99.90